Track Смирнова Дарья

Time Latitude Longitude Accuracy (66% radius in meters) Altitude (meters) Speed (km/hour) Bearing (degrees) Battery (%) GPS flag
10:59:33 59.870247 29.909790 4 37.6 2 133.60000610352 14 1 delete
10:59:32 59.870265 29.909748 4 37.5 1.5 148.60000610352 14 1 delete
10:59:27 59.870352 29.909684 4 34 3.7999999523163 187.60000610352 14 1 delete
10:59:24 59.870484 29.909686 4 32.3 3.9000000953674 193.60000610352 14 1 delete
10:59:21 59.870608 29.909736 4 34.9 2.5999999046326 212.5 14 1 delete
10:59:17 59.870704 29.909810 4 37 2.4000000953674 193.89999389648 14 1 delete
10:59:14 59.870801 29.909867 6 39.5 3.4000000953674 187.80000305176 14 1 delete
10:59:12 59.870889 29.909894 4 38 2.2999999523163 202.5 14 1 delete
10:59:10 59.870936 29.909937 4 38.3 2 207.60000610352 14 1 delete
10:59:08 59.870974 29.909980 4 40.4 2.2999999523163 193.39999389648 14 1 delete
10:59:04 59.871063 29.910014 4 39.6 2.2000000476837 157.39999389648 14 1 delete
10:59:00 59.871153 29.910021 4 37.5 1.5 125.09999847412 14 1 delete
10:58:58 59.871165 29.909940 4 38 1.7999999523163 119.30000305176 14 1 delete
10:58:55 59.871205 29.909856 4 38.1 2.7999999523163 101.09999847412 14 1 delete
10:58:52 59.871223 29.909659 4 37.4 2.0999999046326 98.800003051758 14 1 delete
10:58:47 59.871224 29.909464 4 37.4 2.7999999523163 85 14 1 delete
10:58:46 59.871220 29.909399 4 38.3 2.2999999523163 88.099998474121 14 1 delete
10:58:42 59.871220 29.909224 4 39.3 1.3999999761581 89.300003051758 14 1 delete
10:58:34 59.871215 29.909120 4 38.6 0 0 14 1 delete
10:58:22 59.871197 29.909060 4 36.2 0.89999997615814 30.299999237061 14 1 delete
10:58:11 59.871171 29.909012 4 39.6 0.89999997615814 198.80000305176 14 1 delete
10:58:07 59.871210 29.909028 4 40 1.2000000476837 176.60000610352 14 1 delete
10:58:00 59.871252 29.908944 4 41.8 1 115 14 1 delete
10:57:56 59.871247 29.908854 4 41.8 1.2999999523163 125.19999694824 14 1 delete
10:57:49 59.871283 29.908674 4 35.9 0.80000001192093 134 14 1 delete
10:57:48 59.871300 29.908668 4 31.7 1 69.699996948242 14 1 delete
10:57:39 59.871309 29.908496 4 35.5 1.2999999523163 82.900001525879 14 1 delete
10:57:37 59.871308 29.908444 4 36.2 0.20000000298023 86.699996948242 14 1 delete
10:57:27 59.871321 29.908424 6 33.7 0 0 14 1 delete
10:57:16 59.871332 29.908360 6 35 0.80000001192093 62.5 14 1 delete
10:57:10 59.871249 29.908339 4 35.8 0.5 345.39999389648 14 1 delete
10:57:05 59.871229 29.908325 12 37.6 0 0 14 1 delete
10:56:53 59.871177 29.908346 6 41.9 0 0 14 1 delete
10:56:41 59.871154 29.908347 6 39.8 0.69999998807907 309.89999389648 14 1 delete
10:56:30 59.871170 29.908323 6 39.8 0 0 14 1 delete
10:56:18 59.871170 29.908323 6 39.8 0 0 14 1 delete
10:56:07 59.871169 29.908322 6 39.7 0 0 14 1 delete
10:55:56 59.871169 29.908321 6 39.7 0 0 14 1 delete
10:55:45 59.871168 29.908321 12 39.6 0 0 14 1 delete
10:54:48 59.871167 29.908310 8 39.2 0 0 14 1 delete
10:54:37 59.871166 29.908305 4 39.1 0 0 14 1 delete
10:54:26 59.871165 29.908296 4 38.9 0 0 14 1 delete
10:54:15 59.871169 29.908320 6 39.4 0 0 14 1 delete
10:54:04 59.871142 29.908285 6 38.8 0 0 14 1 delete
10:53:53 59.871148 29.908287 4 38.5 0 0 14 1 delete
10:53:47 59.871161 29.908283 4 38.9 0.5 74.400001525879 14 1 delete
10:53:42 59.871138 29.908274 4 37.7 0.80000001192093 53.900001525879 14 1 delete
10:53:40 59.871071 29.908261 4 39.7 1 47.599998474121 14 1 delete
10:53:31 59.870944 29.908170 4 41.7 0 0 14 1 delete
10:53:20 59.870942 29.908172 4 41.9 0 0 14 1 delete